Plymouth, ME (04969)

4:46 PM EDT on July 26, 2016 (GMT -0400)
APRSWXNET | | Change Station

Elev 316 ft 44.80 °N, 69.26 °W | Updated 21 minutes ago

Mostly Cloudy
Mostly Cloudy
86 °F
Feels Like 88 °F
N
7
Wind Variable Wind from WNW
Gusts 13.0 mph

Today
High -- | Low -- °F
--% Chance of Precip.
Yesterday
High -- | Low -- °F
Precip. -- in
Pressure 29.71 in
Visibility 10.0 miles
Clouds Mostly Cloudy 6000 ft
Heat Index 88 °F
Dew Point 66 °F
Humidity 51%
Rainfall in
Snow Depth Not available.
5:16 AM 8:09 PM
Waning Gibbous, 51% visible
METAR KBGR 261953Z 31013KT 10SM BKN060 31/17 A2972 RMK AO2 SLP060 T03110167
Pressure 29.71 in
Visibility 10.0 miles
Clouds Mostly Cloudy 6000 ft
Heat Index 88 °F
Dew Point 66 °F
Humidity 51%
Rainfall in
Snow Depth Not available.
5:16 AM 8:09 PM
Waning Gibbous, 51% visible
METAR KBGR 261953Z 31013KT 10SM BKN060 31/17 A2972 RMK AO2 SLP060 T03110167

10-Day Weather Forecast

Almanac

Astronomy

Jul. 26, 2016 Rise Set
Actual Time
Civil Twilight
Nautical Twilight
Astronomical Twilight
Moon
Length of Visible Light
Length of Day
Tomorrow will be .
, % of the Moon is Illuminated

Today's Extremes

State Highs State Lows

Community

WunderPhotos

Upload Photos

1,927,678 photos uploaded!

WunderBlog® & News

Nearby

Air Quality

  Air Quality AQ Index Pollutant
Not available.

Snow Depth

Station Depth Elevation

Earthquake Activity

City Distance Mag. Time & Date
Minimum magnitude displayed is 2.5.

Coastal Water Temperatures

Place Temperature

Stations

Nearby Weather Stations

Station Location Temp. Windchill Dew Point Humidity Wind Precip. Elev Updated Type
                   

Watches & Warnings

There are currently no watches in effect.